createdAt,value
2022-09-01T00:00:03.279Z,66.09
2022-09-01T00:02:52.953Z,66.35
2022-09-01T00:05:20.109Z,66.68
2022-09-01T00:07:47.030Z,66.78
2022-09-01T00:10:14.194Z,66.79
2022-09-01T00:12:42.031Z,66.88
2022-09-01T00:15:10.578Z,67.17
2022-09-01T00:17:37.741Z,67.24
2022-09-01T00:20:05.681Z,67.41
2022-09-01T00:22:33.853Z,67.57
2022-09-01T00:25:02.110Z,67.83
2022-09-01T00:27:30.919Z,67.81
2022-09-01T00:29:59.435Z,67.90
2022-09-01T00:32:27.345Z,68.05
2022-09-01T00:34:54.367Z,68.23
2022-09-01T00:37:21.212Z,68.17
2022-09-01T00:39:48.543Z,68.16
2022-09-01T00:42:16.117Z,68.46
2022-09-01T00:44:42.953Z,68.57
2022-09-01T00:47:09.889Z,68.57
2022-09-01T00:49:43.570Z,68.58
2022-09-01T00:52:30.865Z,68.65
2022-09-01T00:55:01.878Z,68.74
2022-09-01T00:57:29.180Z,68.90
2022-09-01T01:00:05.700Z,68.74
2022-09-01T01:02:32.914Z,69.00
2022-09-01T01:05:00.825Z,69.10
2022-09-01T01:07:28.875Z,69.19
2022-09-01T01:09:56.798Z,69.31
2022-09-01T01:12:23.871Z,69.41
2022-09-01T01:14:51.403Z,69.47
2022-09-01T01:17:22.330Z,69.36
2022-09-01T01:20:14.467Z,69.44
2022-09-01T01:23:03.030Z,69.75
2022-09-01T01:25:50.361Z,69.78
2022-09-01T01:28:23.045Z,69.82
2022-09-01T01:30:55.988Z,69.92
2022-09-01T01:33:33.860Z,70.06
2022-09-01T01:36:02.412Z,69.84
2022-09-01T01:38:30.536Z,69.73
2022-09-01T01:40:58.794Z,69.92
2022-09-01T01:43:26.533Z,70.08
2022-09-01T01:45:59.048Z,69.70
2022-09-01T01:48:34.571Z,70.01
2022-09-01T01:51:03.065Z,69.80
2022-09-01T01:53:31.511Z,70.06
2022-09-01T01:56:00.307Z,70.07
2022-09-01T01:58:33.560Z,70.06
2022-09-01T02:01:01.786Z,70.03
2022-09-01T02:03:38.521Z,70.00
2022-09-01T02:06:10.567Z,70.00
2022-09-01T02:08:39.743Z,70.17
2022-09-01T02:11:08.614Z,70.30
2022-09-01T02:13:36.162Z,70.39
2022-09-01T02:16:11.359Z,70.40
2022-09-01T02:18:43.273Z,70.56
2022-09-01T02:21:18.166Z,70.67
2022-09-01T02:24:02.271Z,70.60
2022-09-01T02:26:47.730Z,70.49
2022-09-01T02:29:22.056Z,70.64
2022-09-01T02:31:52.632Z,70.71
2022-09-01T02:34:21.635Z,70.91
2022-09-01T02:36:51.778Z,70.81
2022-09-01T02:39:26.763Z,70.85
2022-09-01T02:41:54.800Z,70.34
2022-09-01T02:44:27.885Z,70.08
2022-09-01T02:46:55.247Z,70.11
2022-09-01T02:49:25.909Z,70.01
2022-09-01T02:52:00.742Z,70.08
2022-09-01T02:54:30.991Z,70.31
2022-09-01T02:56:58.801Z,70.51
2022-09-01T02:59:29.055Z,70.64
2022-09-01T03:01:59.529Z,70.77
2022-09-01T03:04:27.416Z,70.94
2022-09-01T03:06:58.990Z,70.96
2022-09-01T03:09:26.391Z,70.86
2022-09-01T03:11:54.463Z,71.01
2022-09-01T03:14:24.434Z,71.17
2022-09-01T03:16:52.693Z,71.01
2022-09-01T03:19:20.033Z,71.07
2022-09-01T03:21:48.883Z,71.12
2022-09-01T03:24:22.024Z,71.18
2022-09-01T03:26:50.915Z,71.11
2022-09-01T03:29:19.711Z,70.76
2022-09-01T03:31:48.601Z,70.86
2022-09-01T03:34:16.623Z,71.00
2022-09-01T03:36:53.440Z,70.70
2022-09-01T03:39:26.288Z,70.78
2022-09-01T03:41:53.850Z,71.06
2022-09-01T03:44:21.508Z,71.03
2022-09-01T03:46:48.623Z,71.11
2022-09-01T03:49:24.943Z,70.77
2022-09-01T03:51:55.356Z,71.01
2022-09-01T03:54:30.567Z,71.09
2022-09-01T03:57:00.345Z,71.25
2022-09-01T03:59:30.038Z,71.28
2022-09-01T04:01:59.678Z,71.36
2022-09-01T04:04:26.824Z,71.58
2022-09-01T04:06:54.192Z,71.38
2022-09-01T04:09:21.518Z,71.42
2022-09-01T04:11:48.705Z,71.67
2022-09-01T04:14:16.872Z,71.67
2022-09-01T04:17:04.250Z,71.58
2022-09-01T04:19:39.776Z,71.57
2022-09-01T04:22:14.442Z,71.38
2022-09-01T04:24:45.545Z,71.12
2022-09-01T04:27:13.754Z,71.20
2022-09-01T04:29:41.865Z,70.93
2022-09-01T04:32:13.197Z,70.83
2022-09-01T04:34:43.419Z,71.03
2022-09-01T04:37:20.398Z,70.74
2022-09-01T04:39:56.289Z,69.72
2022-09-01T04:42:27.408Z,69.47
2022-09-01T04:44:57.480Z,69.82
2022-09-01T04:47:35.357Z,69.67
2022-09-01T04:50:13.053Z,68.94
2022-09-01T04:52:42.177Z,68.32
2022-09-01T04:55:17.970Z,68.01
2022-09-01T04:57:50.098Z,68.21
2022-09-01T05:00:22.814Z,68.24
2022-09-01T05:02:57.557Z,67.40
2022-09-01T05:05:25.484Z,67.81
2022-09-01T05:07:55.402Z,67.43
2022-09-01T05:10:23.462Z,66.64
2022-09-01T05:13:09.994Z,65.68
2022-09-01T05:15:38.938Z,65.53
2022-09-01T05:18:10.136Z,65.21
2022-09-01T05:20:42.148Z,64.75
2022-09-01T05:23:12.746Z,64.75
2022-09-01T05:25:43.941Z,63.59
2022-09-01T05:28:15.832Z,63.19
2022-09-01T05:30:44.107Z,63.18
2022-09-01T05:33:21.157Z,63.38
2022-09-01T05:35:56.606Z,63.70
2022-09-01T05:38:24.264Z,64.13
2022-09-01T05:41:02.100Z,62.34
2022-09-01T05:43:30.943Z,61.47
2022-09-01T05:46:06.502Z,61.64
2022-09-01T05:48:36.229Z,61.92
2022-09-01T05:51:17.656Z,61.69
2022-09-01T05:53:58.962Z,62.60
2022-09-01T05:56:30.480Z,61.41
2022-09-01T06:01:50.419Z,60.74
2022-09-01T06:04:17.952Z,60.18
2022-09-01T06:07:06.064Z,60.53
2022-09-01T06:09:41.794Z,60.08
2022-09-01T06:12:17.833Z,59.38
2022-09-01T06:14:47.347Z,59.05
2022-09-01T06:17:22.147Z,59.17
2022-09-01T06:19:56.400Z,59.20
2022-09-01T06:22:25.629Z,59.71
2022-09-01T06:24:57.993Z,59.21
2022-09-01T06:27:30.496Z,58.96
2022-09-01T06:29:58.391Z,59.19
2022-09-01T06:32:26.253Z,58.73
2022-09-01T06:34:58.141Z,58.92
2022-09-01T06:37:25.918Z,57.89
2022-09-01T06:39:57.713Z,57.87
2022-09-01T06:42:25.403Z,57.42
2022-09-01T06:44:57.889Z,57.13
2022-09-01T06:47:25.142Z,56.47
2022-09-01T06:49:57.879Z,56.32
2022-09-01T06:52:26.529Z,56.15
2022-09-01T06:54:55.009Z,56.84
2022-09-01T07:00:18.875Z,56.55
2022-09-01T07:02:53.400Z,56.80
2022-09-01T07:14:26.957Z,55.57
2022-09-01T07:17:23.281Z,55.97
2022-09-01T07:19:48.846Z,55.55
2022-09-01T07:25:11.718Z,55.59
2022-09-01T07:27:55.698Z,55.56
2022-09-01T07:30:27.824Z,55.42
2022-09-01T07:32:55.954Z,55.25
2022-09-01T07:35:25.019Z,55.37
2022-09-01T07:44:03.328Z,54.64
2022-09-01T07:47:19.558Z,54.76
2022-09-01T07:50:11.445Z,53.68
2022-09-01T07:52:27.528Z,54.08
2022-09-01T07:54:57.733Z,54.46
2022-09-01T07:57:25.079Z,54.88
2022-09-01T07:59:55.548Z,54.83
2022-09-01T08:02:40.923Z,54.33
2022-09-01T08:05:11.424Z,54.28
2022-09-01T08:07:55.363Z,53.53
2022-09-01T08:10:27.873Z,52.92
2022-09-01T08:12:56.592Z,52.99
2022-09-01T08:16:05.710Z,53.02
2022-09-01T08:18:14.772Z,53.30
2022-09-01T08:20:47.469Z,52.92
2022-09-01T08:23:31.179Z,52.29
2022-09-01T08:25:58.710Z,51.96
2022-09-01T08:28:27.084Z,52.24
2022-09-01T08:30:56.493Z,52.17
2022-09-01T08:33:26.496Z,52.25
2022-09-01T08:35:54.176Z,51.83
2022-09-01T08:38:22.768Z,51.56
2022-09-01T08:40:57.063Z,51.99
2022-09-01T08:43:47.206Z,52.17
2022-09-01T08:46:24.051Z,51.99
2022-09-01T08:49:24.883Z,51.25
2022-09-01T08:52:29.365Z,51.80
2022-09-01T08:55:01.584Z,52.02
2022-09-01T08:57:37.710Z,51.46
2022-09-01T09:00:39.565Z,51.27
2022-09-01T09:03:17.696Z,50.81
2022-09-01T09:06:08.257Z,51.06
2022-09-01T09:09:01.107Z,51.43
2022-09-01T09:11:54.317Z,50.80
2022-09-01T09:14:33.485Z,50.04
2022-09-01T09:17:01.456Z,49.95
2022-09-01T09:19:31.739Z,50.55
2022-09-01T09:22:02.146Z,50.08
2022-09-01T09:24:53.223Z,49.79
2022-09-01T09:27:26.857Z,49.67
2022-09-01T09:29:56.909Z,49.58
2022-09-01T09:33:11.607Z,48.78
2022-09-01T09:35:33.268Z,48.20
2022-09-01T09:38:33.326Z,48.16
2022-09-01T09:41:18.485Z,47.89
2022-09-01T09:44:00.134Z,47.52
2022-09-01T09:46:41.315Z,47.20
2022-09-01T09:49:34.352Z,46.92
2022-09-01T09:52:02.359Z,47.32
2022-09-01T09:54:31.900Z,47.12
2022-09-01T09:57:09.563Z,46.86
2022-09-01T09:59:58.629Z,46.25
2022-09-01T10:02:36.165Z,46.35
2022-09-01T10:05:25.043Z,43.72
2022-09-01T10:07:52.663Z,44.26
2022-09-01T10:10:45.924Z,43.27
2022-09-01T10:13:29.213Z,44.21
2022-09-01T10:16:09.044Z,44.65
2022-09-01T10:18:41.081Z,45.24
2022-09-01T10:21:13.487Z,44.57
2022-09-01T10:23:41.856Z,43.98
2022-09-01T10:26:25.457Z,43.66
2022-09-01T10:28:57.681Z,43.92
2022-09-01T10:31:29.526Z,44.87
2022-09-01T10:34:03.268Z,43.12
2022-09-01T10:36:37.369Z,43.21
2022-09-01T10:39:10.215Z,43.22
2022-09-01T10:41:53.275Z,43.14
2022-09-01T10:44:36.377Z,42.98
2022-09-01T10:47:24.259Z,44.37
2022-09-01T10:49:51.130Z,44.26
2022-09-01T10:52:43.722Z,44.00
2022-09-01T10:55:25.532Z,44.02
2022-09-01T11:01:48.624Z,43.71
2022-09-01T11:04:28.228Z,43.59
2022-09-01T11:07:12.600Z,44.26
2022-09-01T11:09:48.515Z,42.17
2022-09-01T11:12:30.172Z,42.50
2022-09-01T11:15:03.312Z,42.15
2022-09-01T11:17:32.370Z,42.36
2022-09-01T11:20:06.275Z,41.00
2022-09-01T11:22:45.256Z,40.99
2022-09-01T11:25:40.860Z,41.57
2022-09-01T11:28:31.479Z,42.27
2022-09-01T11:31:00.868Z,42.33
2022-09-01T11:33:47.801Z,41.79
2022-09-01T11:36:25.459Z,41.16
2022-09-01T11:38:55.032Z,40.42
2022-09-01T11:41:35.020Z,40.87
2022-09-01T11:44:11.725Z,41.31
2022-09-01T11:46:43.786Z,41.40
2022-09-01T11:49:36.099Z,41.34
2022-09-01T11:52:05.292Z,41.59
2022-09-01T11:54:41.744Z,40.89
2022-09-01T11:57:23.920Z,40.87
2022-09-01T11:59:51.585Z,40.47
2022-09-01T12:02:27.363Z,40.74
2022-09-01T12:04:56.318Z,40.16
2022-09-01T12:07:43.115Z,40.24
2022-09-01T12:10:20.896Z,39.15
2022-09-01T12:12:48.430Z,39.14
2022-09-01T12:15:25.547Z,38.94
2022-09-01T12:17:54.065Z,38.85
2022-09-01T12:20:28.080Z,38.71
2022-09-01T12:22:56.928Z,39.07
2022-09-01T12:25:30.369Z,39.14
2022-09-01T12:28:00.480Z,38.95
2022-09-01T12:30:28.152Z,39.02
2022-09-01T12:35:43.953Z,39.11
2022-09-01T12:38:23.440Z,38.71
2022-09-01T12:40:53.955Z,39.10
2022-09-01T12:43:37.065Z,39.48
2022-09-01T12:46:06.541Z,39.09
2022-09-01T12:48:38.132Z,37.77
2022-09-01T12:51:30.917Z,38.04
2022-09-01T12:54:04.290Z,38.64
2022-09-01T12:56:39.118Z,38.74
2022-09-01T12:59:17.273Z,38.95
2022-09-01T13:01:45.871Z,38.44
2022-09-01T13:04:24.728Z,38.83
2022-09-01T13:06:57.712Z,38.36
2022-09-01T13:09:25.125Z,38.29
2022-09-01T13:12:08.239Z,37.31
2022-09-01T13:14:35.381Z,37.60
2022-09-01T13:17:02.727Z,36.90
2022-09-01T13:19:30.419Z,37.71
2022-09-01T13:21:58.082Z,37.92
2022-09-01T13:24:29.337Z,38.44
2022-09-01T13:29:46.622Z,38.46
2022-09-01T13:32:18.438Z,38.82
2022-09-01T13:34:50.352Z,39.30
2022-09-01T13:37:18.497Z,39.28
2022-09-01T13:39:47.197Z,38.74
2022-09-01T13:42:14.915Z,39.11
2022-09-01T13:44:44.118Z,38.33
2022-09-01T13:50:09.934Z,38.04
2022-09-01T13:52:47.092Z,37.44
2022-09-01T13:55:34.518Z,37.71
2022-09-01T13:58:02.099Z,38.46
2022-09-01T14:00:33.220Z,37.04
2022-09-01T14:03:04.669Z,36.93
2022-09-01T14:05:35.347Z,37.75
2022-09-01T14:08:04.112Z,37.14
2022-09-01T14:10:32.605Z,38.05
2022-09-01T14:13:00.363Z,38.86
2022-09-01T14:15:27.695Z,39.42
2022-09-01T14:17:56.915Z,40.31
2022-09-01T14:20:27.420Z,40.55
2022-09-01T14:22:55.924Z,40.94
2022-09-01T14:25:23.740Z,40.97
2022-09-01T14:27:51.547Z,41.02
2022-09-01T14:30:22.512Z,39.66
2022-09-01T14:32:50.471Z,39.72
2022-09-01T14:35:20.100Z,40.06
2022-09-01T14:37:47.410Z,40.14
2022-09-01T14:40:17.169Z,39.54
2022-09-01T14:42:49.368Z,39.35
2022-09-01T14:45:21.851Z,38.93
2022-09-01T14:47:51.210Z,39.23
2022-09-01T14:50:22.896Z,39.68
2022-09-01T14:52:56.303Z,39.64
2022-09-01T14:55:25.647Z,39.28
2022-09-01T14:57:52.899Z,39.17
2022-09-01T15:00:20.346Z,39.10
2022-09-01T15:02:47.439Z,39.11
2022-09-01T15:05:14.933Z,38.78
2022-09-01T15:07:42.907Z,38.76
2022-09-01T15:10:15.843Z,38.59
2022-09-01T15:12:53.861Z,38.62
2022-09-01T15:15:20.783Z,38.47
2022-09-01T15:17:47.749Z,38.59
2022-09-01T15:20:33.391Z,38.81
2022-09-01T15:23:01.187Z,38.82
2022-09-01T15:25:28.439Z,38.57
2022-09-01T15:27:55.543Z,38.82
2022-09-01T15:30:22.583Z,38.21
2022-09-01T15:32:52.951Z,38.44
2022-09-01T15:35:21.492Z,38.66
2022-09-01T15:37:49.831Z,38.18
2022-09-01T15:40:18.114Z,38.65
2022-09-01T15:42:45.398Z,38.73
2022-09-01T15:45:16.089Z,37.95
2022-09-01T15:47:45.585Z,38.53
2022-09-01T15:50:21.133Z,38.73
2022-09-01T15:53:01.654Z,38.51
2022-09-01T15:55:31.572Z,38.42
2022-09-01T15:57:59.756Z,38.72
2022-09-01T16:00:28.907Z,38.53
2022-09-01T16:02:57.772Z,38.91
2022-09-01T16:05:25.299Z,39.31
2022-09-01T16:07:52.585Z,39.63
2022-09-01T16:10:20.137Z,39.71
2022-09-01T16:12:48.258Z,40.13
2022-09-01T16:15:19.035Z,40.04
2022-09-01T16:18:15.001Z,40.47
2022-09-01T16:20:55.593Z,40.50
2022-09-01T16:23:25.450Z,40.75
2022-09-01T16:25:54.041Z,40.94
2022-09-01T16:28:20.946Z,40.90
2022-09-01T16:30:51.761Z,40.67
2022-09-01T16:33:22.030Z,40.83
2022-09-01T16:36:08.469Z,41.02
2022-09-01T16:38:48.692Z,41.20
2022-09-01T16:41:43.901Z,41.67
2022-09-01T16:44:17.828Z,41.81
2022-09-01T16:47:19.683Z,41.46
2022-09-01T16:50:22.973Z,41.63
2022-09-01T16:53:28.427Z,41.67
2022-09-01T16:56:25.115Z,41.97
2022-09-01T16:59:17.676Z,41.91
2022-09-01T17:01:59.662Z,42.25
2022-09-01T17:04:42.235Z,42.47
2022-09-01T17:07:40.455Z,42.73
2022-09-01T17:10:22.781Z,42.90
2022-09-01T17:12:56.001Z,42.54
2022-09-01T17:15:40.922Z,42.59
2022-09-01T17:18:41.006Z,42.79
2022-09-01T17:21:20.858Z,42.76
2022-09-01T17:24:12.364Z,42.82
2022-09-01T17:26:41.864Z,42.69
2022-09-01T17:29:23.248Z,42.62
2022-09-01T17:32:30.971Z,42.74
2022-09-01T17:34:58.079Z,42.67
2022-09-01T17:37:40.136Z,42.70
2022-09-01T17:40:18.565Z,42.89
2022-09-01T17:43:12.173Z,43.16
2022-09-01T17:45:59.047Z,43.25
2022-09-01T17:48:40.230Z,43.37
2022-09-01T17:51:20.898Z,43.54
2022-09-01T17:53:59.579Z,43.66
2022-09-01T17:56:47.462Z,43.85
2022-09-01T17:59:36.767Z,44.23
2022-09-01T18:02:20.989Z,44.30
2022-09-01T18:05:04.477Z,44.56
2022-09-01T18:08:05.641Z,44.78
2022-09-01T18:10:40.148Z,45.04
2022-09-01T18:13:30.477Z,45.11
2022-09-01T18:16:10.289Z,45.29
2022-09-01T18:18:40.784Z,45.40
2022-09-01T18:21:14.462Z,45.61
2022-09-01T18:23:44.347Z,45.87
2022-09-01T18:26:32.438Z,45.95
2022-09-01T18:29:01.368Z,46.14
2022-09-01T18:31:44.598Z,46.36
2022-09-01T18:34:49.453Z,46.53
2022-09-01T18:37:42.426Z,46.72
2022-09-01T18:40:30.214Z,47.00
2022-09-01T18:43:06.272Z,47.00
2022-09-01T18:45:48.659Z,47.29
2022-09-01T18:48:28.398Z,47.70
2022-09-01T18:51:04.276Z,47.78
2022-09-01T18:53:37.773Z,47.97
2022-09-01T18:56:16.707Z,47.95
2022-09-01T18:59:10.620Z,48.23
2022-09-01T19:01:52.362Z,48.41
2022-09-01T19:04:33.630Z,48.64
2022-09-01T19:07:26.697Z,48.74
2022-09-01T19:10:02.384Z,48.72
2022-09-01T19:12:51.600Z,48.94
2022-09-01T19:15:51.112Z,49.18
2022-09-01T19:18:44.621Z,49.31
2022-09-01T19:21:24.109Z,49.35
2022-09-01T19:24:02.821Z,49.62
2022-09-01T19:26:37.311Z,49.53
2022-09-01T19:29:12.649Z,49.55
2022-09-01T19:31:45.448Z,49.76
2022-09-01T19:34:20.451Z,49.86
2022-09-01T19:37:01.484Z,49.92
2022-09-01T19:39:36.245Z,49.92
2022-09-01T19:42:44.925Z,50.13
2022-09-01T19:45:52.697Z,50.21
2022-09-01T19:48:27.326Z,49.88
2022-09-01T19:51:18.213Z,50.17
2022-09-01T19:54:01.387Z,50.24
2022-09-01T19:56:39.718Z,49.90
2022-09-01T19:59:19.327Z,50.01
2022-09-01T20:01:58.743Z,50.06
2022-09-01T20:04:49.736Z,50.12
2022-09-01T20:07:36.629Z,50.20
2022-09-01T20:10:13.244Z,50.27
2022-09-01T20:12:51.125Z,50.20
2022-09-01T20:15:39.746Z,50.52
2022-09-01T20:18:13.892Z,50.59
2022-09-01T20:20:49.056Z,50.71
2022-09-01T20:23:44.066Z,50.85
2022-09-01T20:26:19.305Z,50.96
2022-09-01T20:29:07.644Z,51.05
2022-09-01T20:31:42.614Z,51.16
2022-09-01T20:34:15.846Z,51.33
2022-09-01T20:36:48.932Z,51.36
2022-09-01T20:39:49.132Z,51.75
2022-09-01T20:42:24.252Z,51.76
2022-09-01T20:45:15.247Z,52.13
2022-09-01T20:47:53.293Z,52.03
2022-09-01T20:50:27.649Z,52.33
2022-09-01T20:53:16.526Z,52.38
2022-09-01T20:55:57.913Z,52.56
2022-09-01T20:58:36.720Z,52.71
2022-09-01T21:01:04.118Z,52.70
2022-09-01T21:03:47.169Z,52.95
2022-09-01T21:06:20.635Z,52.99
2022-09-01T21:08:53.941Z,52.96
2022-09-01T21:11:44.377Z,52.85
2022-09-01T21:14:21.348Z,53.28
2022-09-01T21:17:07.803Z,53.41
2022-09-01T21:19:42.793Z,53.53
2022-09-01T21:22:13.300Z,53.69
2022-09-01T21:24:44.435Z,53.95
2022-09-01T21:27:22.717Z,53.73
2022-09-01T21:29:53.010Z,54.08
2022-09-01T21:32:20.600Z,54.21
2022-09-01T21:34:48.771Z,54.19
2022-09-01T21:37:15.595Z,54.45
2022-09-01T21:39:43.633Z,54.62
2022-09-01T21:42:12.599Z,54.56
2022-09-01T21:44:40.616Z,54.65
2022-09-01T21:47:07.809Z,54.76
2022-09-01T21:49:34.628Z,54.84
2022-09-01T21:52:01.931Z,55.02
2022-09-01T21:54:28.983Z,55.16
2022-09-01T21:56:55.925Z,55.25
2022-09-01T21:59:22.864Z,55.67
2022-09-01T22:01:50.383Z,55.56
2022-09-01T22:04:24.298Z,55.76
2022-09-01T22:06:52.171Z,55.92
2022-09-01T22:09:21.702Z,55.78
2022-09-01T22:11:51.063Z,55.67
2022-09-01T22:14:19.309Z,55.67
2022-09-01T22:16:47.328Z,55.53
2022-09-01T22:19:14.660Z,55.41
2022-09-01T22:21:42.115Z,55.45
2022-09-01T22:24:09.371Z,55.42
2022-09-01T22:26:36.591Z,55.59
2022-09-01T22:29:06.833Z,55.85
2022-09-01T22:31:37.425Z,55.67
2022-09-01T22:34:05.812Z,55.73
2022-09-01T22:36:36.075Z,55.80
2022-09-01T22:39:03.863Z,55.60
2022-09-01T22:41:31.891Z,55.95
2022-09-01T22:44:00.106Z,56.03
2022-09-01T22:46:29.256Z,56.08
2022-09-01T22:48:57.833Z,56.07
2022-09-01T22:51:26.642Z,55.93
2022-09-01T22:53:54.686Z,55.88
2022-09-01T22:56:31.515Z,55.92
2022-09-01T22:59:04.015Z,55.76
2022-09-01T23:01:35.897Z,55.74
2022-09-01T23:04:05.189Z,56.09
2022-09-01T23:06:34.746Z,56.00
2022-09-01T23:09:03.191Z,55.94
2022-09-01T23:11:30.117Z,55.80
2022-09-01T23:13:57.693Z,56.16
2022-09-01T23:16:25.780Z,56.23
2022-09-01T23:18:53.492Z,56.37
2022-09-01T23:21:25.965Z,56.46
2022-09-01T23:23:58.465Z,56.60
2022-09-01T23:26:28.037Z,56.53
2022-09-01T23:28:55.490Z,56.64
2022-09-01T23:31:26.431Z,56.64
2022-09-01T23:33:54.016Z,56.43
2022-09-01T23:36:25.528Z,56.62
2022-09-01T23:38:53.718Z,56.81
2022-09-01T23:41:25.523Z,56.90
2022-09-01T23:43:53.579Z,57.02
2022-09-01T23:46:25.996Z,57.10
2022-09-01T23:48:54.276Z,56.96
2022-09-01T23:51:23.363Z,57.12
2022-09-01T23:53:51.809Z,57.27
2022-09-01T23:56:22.379Z,57.33
2022-09-01T23:58:50.077Z,57.39
